Terminal Aerodrome Forecast
Issued by NWS Milwaukee/Sullivan, WI

Home | Current Version | Previous Version | Text Only | Print | Product List | Glossary On
Versions: 1 2 3 4 5 6 7 8 9 10 11 12 13 14 15 16 17 18 19 20 21 22 23 24 25 26 27 28 29 30 31 32 33 34 35 36 37 38 39 40 41 42 43 44 45 46 47 48 49
000
FTUS43 KMKX 290805 AAA
TAFMKE
TAF AMD
KMKE 290805Z 2908/3012 18013G23KT P6SM FEW012 BKN035 OVC200
      WS020/22045KT
     FM291300 24012G22KT P6SM SCT050
     FM300100 24013G21KT P6SM VCTS BKN050CB
     FM300900 25004KT P6SM BKN030=

USA.gov is the U.S. government's official web portal to all federal, state and local government web resources and services.